Accueil
METAR-TAF:

METAR-TAF

Aéroports :

Arnhem, Pays-Bas

latitude: 52-04N, longitude: 005-53E, altitude: 48 m

Observation

Le bulletin a été fait il y a 44 minutes, à 12:25 UTC
Vent 11 kt de sud/sud-ouest, variant entre sud-est et nord-ouest
Température 24°C
Humidité 50%
Pression 1025 hPa
Visibilité 10 km ou plus
Nuages fragmentés à une hauteur de 37000 ft

METAR: EHDL 221225Z AUTO 21011KT 140V310 9999 BKN370 24/13 Q1025 BLU

Heure: 15:09 (13:09 UTC)


TAF: absent

Observations et prévisions météorologiques de plus de 4000 aéroports (messages METAR et TAF).

Les stations disponibles sont représentées par des disques jaunes et rouges sur la carte.

Passer la souris dessus pour voir le nom de la station.

Cliquer dessus pour voir les observations et prévisions météorologiques.

Pour changer de carte: cliquez sur les boutons verts avec une croix noire pour zoomer, sur le bouton vert avec un tiret pour effectuer un zoom arrière, ou sur les flèches vertes pour les cartes adjacentes.


METAR-TAF: